createdAt,value
2017-10-30T00:01:46.435Z,6.65
2017-10-30T00:04:13.935Z,6.74
2017-10-30T00:06:41.432Z,6.72
2017-10-30T00:09:08.919Z,6.72
2017-10-30T00:11:36.494Z,6.75
2017-10-30T00:14:03.982Z,6.81
2017-10-30T00:16:33.548Z,6.81
2017-10-30T00:19:01.061Z,6.81
2017-10-30T00:21:28.540Z,6.86
2017-10-30T00:23:56.020Z,6.85
2017-10-30T00:26:23.501Z,6.93
2017-10-30T00:28:50.983Z,6.89
2017-10-30T00:31:18.445Z,7.00
2017-10-30T00:33:45.926Z,7.01
2017-10-30T00:36:13.447Z,7.07
2017-10-30T00:38:40.901Z,7.15
2017-10-30T00:41:08.365Z,7.18
2017-10-30T00:43:36.532Z,7.23
2017-10-30T00:46:03.994Z,7.22
2017-10-30T00:48:31.471Z,7.18
2017-10-30T00:50:58.963Z,7.21
2017-10-30T00:53:26.426Z,7.12
2017-10-30T00:55:54.323Z,7.11
2017-10-30T00:58:21.770Z,7.08
2017-10-30T01:00:49.274Z,7.19
2017-10-30T01:03:17.626Z,7.13
2017-10-30T01:05:45.968Z,7.13
2017-10-30T01:08:13.453Z,7.19
2017-10-30T01:10:40.943Z,7.25
2017-10-30T01:13:08.430Z,7.23
2017-10-30T01:15:35.889Z,7.20
2017-10-30T01:18:03.353Z,7.16
2017-10-30T01:20:30.829Z,7.26
2017-10-30T01:22:58.706Z,7.24
2017-10-30T01:25:26.162Z,7.30
2017-10-30T01:27:53.621Z,7.34
2017-10-30T01:30:21.094Z,7.34
2017-10-30T01:32:48.562Z,7.41
2017-10-30T01:35:16.025Z,7.41
2017-10-30T01:37:43.498Z,7.51
2017-10-30T01:40:11.658Z,7.58
2017-10-30T01:42:39.124Z,6.79
2017-10-30T01:45:06.574Z,5.86
2017-10-30T01:47:34.053Z,5.41
2017-10-30T01:50:01.520Z,5.39
2017-10-30T01:52:28.972Z,5.77
2017-10-30T01:54:56.441Z,6.17
2017-10-30T01:57:24.799Z,6.36
2017-10-30T01:59:52.283Z,6.42
2017-10-30T02:02:19.773Z,6.55
2017-10-30T02:04:47.237Z,6.60
2017-10-30T02:07:14.726Z,6.63
2017-10-30T02:09:42.226Z,6.62
2017-10-30T02:12:09.666Z,6.61
2017-10-30T02:14:37.124Z,6.63
2017-10-30T02:17:04.606Z,6.78
2017-10-30T02:19:32.075Z,6.85
2017-10-30T02:21:59.658Z,6.86
2017-10-30T02:24:27.160Z,6.92
2017-10-30T02:26:54.612Z,7.00
2017-10-30T02:29:22.083Z,6.98
2017-10-30T02:31:49.570Z,6.95
2017-10-30T02:34:17.055Z,6.90
2017-10-30T02:36:44.575Z,6.91
2017-10-30T02:39:12.057Z,6.93
2017-10-30T02:41:39.577Z,6.92
2017-10-30T02:44:07.140Z,6.85
2017-10-30T02:46:34.710Z,6.94
2017-10-30T02:49:02.191Z,6.95
2017-10-30T02:51:29.699Z,6.97
2017-10-30T02:53:57.242Z,6.92
2017-10-30T02:56:24.732Z,6.91
2017-10-30T02:58:52.239Z,6.95
2017-10-30T03:01:19.723Z,6.90
2017-10-30T03:03:47.213Z,6.93
2017-10-30T03:06:14.749Z,6.91
2017-10-30T03:08:42.238Z,6.98
2017-10-30T03:11:09.836Z,6.98
2017-10-30T03:13:37.354Z,6.91
2017-10-30T03:16:04.834Z,6.99
2017-10-30T03:18:32.331Z,6.89
2017-10-30T03:20:59.856Z,6.83
2017-10-30T03:23:27.391Z,6.76
2017-10-30T03:25:54.905Z,6.73
2017-10-30T03:28:22.421Z,6.74
2017-10-30T03:30:49.930Z,6.68
2017-10-30T03:33:17.441Z,6.78
2017-10-30T03:35:44.979Z,6.85
2017-10-30T03:38:12.474Z,6.78
2017-10-30T03:40:39.956Z,6.70
2017-10-30T03:43:07.484Z,6.70
2017-10-30T03:45:35.000Z,6.70
2017-10-30T03:48:02.486Z,6.64
2017-10-30T03:50:30.020Z,6.66
2017-10-30T03:52:57.534Z,6.62
2017-10-30T03:55:25.015Z,6.62
2017-10-30T03:57:52.502Z,6.60
2017-10-30T04:00:19.966Z,6.58
2017-10-30T04:02:47.430Z,6.52
2017-10-30T04:05:14.915Z,6.54
2017-10-30T04:07:42.392Z,6.51
2017-10-30T04:10:09.853Z,6.48
2017-10-30T04:12:37.332Z,6.48
2017-10-30T04:15:05.561Z,6.54
2017-10-30T04:17:33.042Z,6.55
2017-10-30T04:20:00.514Z,6.47
2017-10-30T04:22:27.975Z,6.51
2017-10-30T04:24:55.461Z,6.43
2017-10-30T04:27:22.987Z,6.41
2017-10-30T04:29:50.476Z,6.44
2017-10-30T04:32:17.953Z,6.41
2017-10-30T04:34:45.483Z,6.34
2017-10-30T04:37:12.984Z,6.42
2017-10-30T04:39:40.451Z,6.38
2017-10-30T04:42:07.995Z,6.41
2017-10-30T04:44:35.456Z,6.35
2017-10-30T04:47:02.920Z,6.38
2017-10-30T04:49:30.424Z,6.43
2017-10-30T04:51:57.898Z,6.41
2017-10-30T04:54:25.342Z,6.38
2017-10-30T04:56:52.836Z,6.46
2017-10-30T04:59:21.095Z,6.40
2017-10-30T05:01:48.554Z,6.41
2017-10-30T05:04:16.052Z,6.44
2017-10-30T05:06:43.522Z,6.51
2017-10-30T05:09:11.013Z,6.46
2017-10-30T05:11:38.495Z,6.42
2017-10-30T05:14:05.952Z,6.43
2017-10-30T05:16:33.896Z,6.47
2017-10-30T05:19:01.445Z,6.48
2017-10-30T05:21:28.925Z,6.48
2017-10-30T05:23:56.429Z,6.46
2017-10-30T05:26:24.773Z,6.39
2017-10-30T05:28:52.244Z,6.41
2017-10-30T05:31:19.729Z,6.42
2017-10-30T05:33:47.221Z,6.38
2017-10-30T05:36:14.669Z,6.43
2017-10-30T05:38:42.121Z,6.42
2017-10-30T05:41:09.588Z,6.42
2017-10-30T05:43:37.116Z,6.40
2017-10-30T05:46:04.575Z,6.41
2017-10-30T05:48:32.104Z,6.45
2017-10-30T05:50:59.593Z,6.40
2017-10-30T05:53:27.131Z,6.39
2017-10-30T05:55:54.608Z,6.50
2017-10-30T05:58:22.093Z,6.52
2017-10-30T06:00:49.552Z,6.55
2017-10-30T06:03:17.013Z,6.61
2017-10-30T06:05:44.486Z,6.80
2017-10-30T06:08:12.557Z,6.84
2017-10-30T06:10:40.070Z,7.01
2017-10-30T06:13:07.519Z,7.11
2017-10-30T06:15:35.039Z,7.13
2017-10-30T06:18:02.518Z,7.14
2017-10-30T06:20:30.977Z,7.12
2017-10-30T06:22:58.430Z,7.16
2017-10-30T06:25:25.941Z,7.21
2017-10-30T06:27:54.048Z,7.20
2017-10-30T06:30:21.536Z,7.31
2017-10-30T06:32:49.022Z,7.30
2017-10-30T06:35:16.491Z,7.35
2017-10-30T06:37:43.994Z,7.45
2017-10-30T06:40:11.496Z,7.44
2017-10-30T06:42:38.960Z,7.53
2017-10-30T06:45:06.411Z,7.53
2017-10-30T06:47:33.934Z,7.59
2017-10-30T06:50:01.464Z,7.57
2017-10-30T06:52:29.509Z,7.67
2017-10-30T06:54:57.066Z,7.70
2017-10-30T06:57:24.574Z,7.65
2017-10-30T06:59:52.076Z,7.72
2017-10-30T07:02:31.193Z,7.66
2017-10-30T07:04:58.729Z,7.68
2017-10-30T07:07:26.228Z,7.70
2017-10-30T07:09:53.801Z,7.75
2017-10-30T07:12:21.297Z,7.80
2017-10-30T07:14:48.804Z,7.85
2017-10-30T07:17:16.293Z,7.73
2017-10-30T07:19:43.877Z,7.69
2017-10-30T07:22:11.377Z,7.62
2017-10-30T07:24:38.925Z,7.58
2017-10-30T07:27:06.442Z,7.53
2017-10-30T07:29:34.002Z,7.63
2017-10-30T07:32:02.845Z,7.71
2017-10-30T07:34:30.347Z,7.62
2017-10-30T07:36:57.859Z,7.56
2017-10-30T07:39:25.365Z,7.49
2017-10-30T07:41:55.701Z,7.34
2017-10-30T07:44:23.178Z,7.48
2017-10-30T07:46:50.670Z,7.38
2017-10-30T07:49:18.203Z,7.43
2017-10-30T07:51:47.242Z,7.40
2017-10-30T07:54:14.821Z,7.43
2017-10-30T07:56:42.302Z,7.39
2017-10-30T07:59:10.337Z,7.39
2017-10-30T08:01:37.799Z,7.30
2017-10-30T08:04:05.287Z,7.48
2017-10-30T08:06:32.807Z,7.60
2017-10-30T08:09:00.265Z,7.75
2017-10-30T08:11:27.741Z,7.76
2017-10-30T08:13:55.250Z,7.78
2017-10-30T08:16:22.839Z,7.81
2017-10-30T08:18:50.320Z,7.76
2017-10-30T08:21:17.816Z,7.91
2017-10-30T08:23:45.287Z,7.95
2017-10-30T08:26:12.784Z,7.90
2017-10-30T08:28:40.948Z,7.94
2017-10-30T08:31:08.400Z,7.73
2017-10-30T08:33:35.887Z,7.62
2017-10-30T08:36:03.374Z,7.75
2017-10-30T08:38:30.845Z,7.83
2017-10-30T08:40:58.312Z,7.81
2017-10-30T08:43:25.892Z,7.60
2017-10-30T08:45:53.356Z,7.67
2017-10-30T08:48:21.418Z,7.77
2017-10-30T08:50:48.935Z,7.76
2017-10-30T08:53:16.466Z,7.82
2017-10-30T08:55:43.954Z,7.83
2017-10-30T08:58:11.479Z,7.64
2017-10-30T09:00:38.998Z,7.50
2017-10-30T09:03:06.485Z,7.33
2017-10-30T09:05:34.026Z,7.31
2017-10-30T09:08:01.990Z,7.33
2017-10-30T09:10:29.481Z,7.50
2017-10-30T09:12:57.017Z,7.58
2017-10-30T09:15:24.558Z,7.64
2017-10-30T09:17:52.035Z,7.78
2017-10-30T09:20:19.566Z,7.89
2017-10-30T09:22:47.070Z,8.06
2017-10-30T09:25:14.584Z,8.16
2017-10-30T09:27:42.110Z,8.25
2017-10-30T09:30:10.024Z,8.33
2017-10-30T09:32:37.492Z,8.42
2017-10-30T09:35:04.978Z,8.46
2017-10-30T09:37:32.454Z,8.46
2017-10-30T09:39:59.942Z,8.82
2017-10-30T09:42:28.216Z,9.07
2017-10-30T09:44:56.482Z,9.47
2017-10-30T09:47:23.958Z,9.77
2017-10-30T09:49:52.302Z,9.69
2017-10-30T09:52:19.810Z,9.01
2017-10-30T09:54:47.786Z,8.85
2017-10-30T09:57:16.377Z,8.59
2017-10-30T09:59:43.882Z,8.42
2017-10-30T10:02:11.381Z,8.62
2017-10-30T10:04:38.965Z,8.69
2017-10-30T10:07:06.522Z,8.74
2017-10-30T10:09:34.043Z,8.84
2017-10-30T10:12:01.548Z,9.02
2017-10-30T10:14:29.065Z,9.06
2017-10-30T10:16:56.550Z,9.05
2017-10-30T10:19:24.042Z,9.31
2017-10-30T10:21:51.566Z,9.39
2017-10-30T10:24:19.093Z,9.58
2017-10-30T10:26:46.601Z,9.50
2017-10-30T10:29:14.109Z,9.70
2017-10-30T10:31:41.593Z,9.44
2017-10-30T10:34:09.047Z,9.55
2017-10-30T10:36:37.464Z,9.56
2017-10-30T10:39:04.986Z,9.47
2017-10-30T10:41:32.442Z,9.21
2017-10-30T10:44:00.018Z,9.14
2017-10-30T10:46:27.493Z,8.55
2017-10-30T10:48:54.962Z,8.10
2017-10-30T10:51:22.462Z,7.40
2017-10-30T10:53:49.956Z,6.32
2017-10-30T10:56:17.414Z,6.02
2017-10-30T10:58:44.940Z,5.90
2017-10-30T11:01:12.393Z,5.78
2017-10-30T11:03:40.383Z,5.94
2017-10-30T11:06:09.223Z,6.12
2017-10-30T11:08:38.203Z,6.17
2017-10-30T11:11:05.717Z,6.39
2017-10-30T11:13:33.193Z,6.71
2017-10-30T11:16:00.661Z,6.98
2017-10-30T11:18:28.199Z,7.26
2017-10-30T11:20:55.675Z,7.43
2017-10-30T11:23:23.121Z,7.59
2017-10-30T11:25:50.592Z,7.66
2017-10-30T11:28:18.062Z,7.90
2017-10-30T11:30:45.550Z,8.06
2017-10-30T11:33:12.994Z,8.13
2017-10-30T11:35:40.500Z,8.48
2017-10-30T11:38:07.977Z,8.77
2017-10-30T11:40:35.469Z,9.00
2017-10-30T11:43:02.927Z,9.01
2017-10-30T11:45:30.662Z,9.05
2017-10-30T11:47:58.142Z,9.22
2017-10-30T11:50:25.600Z,9.40
2017-10-30T11:52:53.059Z,9.64
2017-10-30T11:55:21.442Z,9.71
2017-10-30T11:57:51.397Z,9.93
2017-10-30T12:00:18.877Z,9.90
2017-10-30T12:02:46.409Z,9.99
2017-10-30T12:05:13.890Z,9.84
2017-10-30T12:07:41.376Z,9.79
2017-10-30T12:10:10.142Z,9.66
2017-10-30T12:12:37.702Z,9.73
2017-10-30T12:15:05.184Z,9.85
2017-10-30T12:17:32.642Z,9.85
2017-10-30T12:20:00.103Z,9.86
2017-10-30T12:22:27.605Z,9.76
2017-10-30T12:24:55.080Z,9.76
2017-10-30T12:27:22.538Z,9.61
2017-10-30T12:29:50.041Z,9.58
2017-10-30T12:32:17.485Z,9.61
2017-10-30T12:34:44.979Z,9.57
2017-10-30T12:37:12.442Z,9.49
2017-10-30T12:39:39.913Z,9.61
2017-10-30T12:42:07.390Z,9.65
2017-10-30T12:44:34.868Z,9.62
2017-10-30T12:47:02.330Z,9.63
2017-10-30T12:49:29.801Z,9.70
2017-10-30T12:51:57.317Z,9.58
2017-10-30T12:54:24.810Z,9.72
2017-10-30T12:56:52.301Z,9.72
2017-10-30T12:59:19.849Z,9.58
2017-10-30T13:01:47.324Z,9.74
2017-10-30T13:04:14.805Z,9.78
2017-10-30T13:06:42.298Z,9.92
2017-10-30T13:09:09.838Z,9.90
2017-10-30T13:11:37.320Z,9.80
2017-10-30T13:14:05.604Z,9.92
2017-10-30T13:19:05.883Z,9.78
2017-10-30T13:21:33.358Z,9.71
2017-10-30T13:24:00.852Z,9.75
2017-10-30T13:26:29.318Z,9.81
2017-10-30T13:28:56.789Z,9.78
2017-10-30T13:31:24.255Z,9.38
2017-10-30T13:33:51.737Z,9.36
2017-10-30T13:36:19.221Z,9.31
2017-10-30T13:38:46.690Z,9.46
2017-10-30T13:41:14.195Z,9.57
2017-10-30T13:43:41.725Z,9.40
2017-10-30T13:46:09.185Z,9.35
2017-10-30T13:48:36.666Z,9.60
2017-10-30T13:51:04.148Z,10.22
2017-10-30T13:53:31.636Z,10.58
2017-10-30T13:55:59.157Z,10.97
2017-10-30T13:58:26.641Z,11.68
2017-10-30T14:00:54.130Z,11.86
2017-10-30T14:03:21.604Z,11.88
2017-10-30T14:05:49.064Z,11.46
2017-10-30T14:08:16.590Z,10.86
2017-10-30T14:10:44.085Z,11.03
2017-10-30T14:13:11.571Z,11.03
2017-10-30T14:15:39.138Z,10.96
2017-10-30T14:18:06.836Z,11.23
2017-10-30T14:20:34.299Z,12.17
2017-10-30T14:23:01.763Z,12.19
2017-10-30T14:25:29.249Z,11.74
2017-10-30T14:27:56.718Z,11.83
2017-10-30T14:30:24.287Z,11.62
2017-10-30T14:32:51.785Z,12.40
2017-10-30T14:35:19.289Z,12.42
2017-10-30T14:37:46.777Z,12.42
2017-10-30T14:40:14.320Z,12.25
2017-10-30T14:42:41.827Z,12.10
2017-10-30T14:45:09.309Z,12.23
2017-10-30T14:47:36.794Z,11.70
2017-10-30T14:50:04.259Z,11.95
2017-10-30T14:52:31.741Z,11.16
2017-10-30T14:54:59.266Z,10.71
2017-10-30T14:57:26.781Z,9.96
2017-10-30T14:59:54.356Z,9.56
2017-10-30T15:02:21.881Z,9.31
2017-10-30T15:04:49.369Z,8.91
2017-10-30T15:07:16.845Z,8.44
2017-10-30T15:09:44.311Z,7.58
2017-10-30T15:12:11.969Z,6.83
2017-10-30T15:14:39.451Z,6.59
2017-10-30T15:17:06.972Z,6.57
2017-10-30T15:19:34.471Z,6.59
2017-10-30T15:22:02.052Z,6.58
2017-10-30T15:24:29.578Z,6.80
2017-10-30T15:26:57.072Z,6.78
2017-10-30T15:29:24.689Z,6.86
2017-10-30T15:31:52.179Z,6.86
2017-10-30T15:34:19.660Z,7.02
2017-10-30T15:36:47.117Z,7.05
2017-10-30T15:39:14.718Z,7.02
2017-10-30T15:41:42.283Z,7.06
2017-10-30T15:44:09.779Z,7.12
2017-10-30T15:46:37.311Z,7.12
2017-10-30T15:49:04.783Z,7.26
2017-10-30T15:51:32.257Z,7.32
2017-10-30T15:53:59.818Z,7.41
2017-10-30T15:56:27.393Z,7.38
2017-10-30T15:58:54.927Z,7.34
2017-10-30T16:01:22.471Z,7.32
2017-10-30T16:03:50.019Z,7.35
2017-10-30T16:06:17.488Z,7.31
2017-10-30T16:08:44.970Z,7.38
2017-10-30T16:11:12.433Z,7.47
2017-10-30T16:13:39.918Z,7.43
2017-10-30T16:16:07.394Z,7.47
2017-10-30T16:18:34.862Z,7.48
2017-10-30T16:21:02.379Z,7.45
2017-10-30T16:23:29.861Z,7.45
2017-10-30T16:25:57.347Z,7.33
2017-10-30T16:28:24.805Z,7.40
2017-10-30T16:30:52.298Z,7.35
2017-10-30T16:33:19.847Z,7.44
2017-10-30T16:35:47.337Z,7.45
2017-10-30T16:38:14.853Z,7.42
2017-10-30T16:40:42.318Z,7.46
2017-10-30T16:43:09.797Z,7.50
2017-10-30T16:45:37.273Z,7.50
2017-10-30T16:48:04.742Z,7.43
2017-10-30T16:50:32.245Z,7.44
2017-10-30T16:52:59.726Z,7.50
2017-10-30T16:55:27.223Z,7.50
2017-10-30T16:57:54.687Z,7.42
2017-10-30T17:00:22.185Z,7.40
2017-10-30T17:02:49.638Z,7.37
2017-10-30T17:05:17.086Z,7.34
2017-10-30T17:07:44.561Z,7.34
2017-10-30T17:10:12.089Z,7.36
2017-10-30T17:12:39.567Z,7.35
2017-10-30T17:15:07.057Z,7.38
2017-10-30T17:17:34.524Z,7.34
2017-10-30T17:20:01.979Z,7.40
2017-10-30T17:22:29.460Z,7.42
2017-10-30T17:24:56.917Z,7.38
2017-10-30T17:27:24.396Z,7.29
2017-10-30T17:29:51.871Z,7.35
2017-10-30T17:32:19.350Z,7.30
2017-10-30T17:34:46.851Z,7.32
2017-10-30T17:37:14.314Z,7.32
2017-10-30T17:39:41.831Z,7.23
2017-10-30T17:42:09.296Z,7.12
2017-10-30T17:44:36.778Z,7.05
2017-10-30T17:47:04.270Z,7.05
2017-10-30T17:49:31.784Z,7.08
2017-10-30T17:51:59.297Z,7.05
2017-10-30T17:54:26.755Z,6.96
2017-10-30T17:56:54.219Z,7.00
2017-10-30T17:59:21.736Z,7.11
2017-10-30T18:01:49.200Z,6.97
2017-10-30T18:04:16.663Z,6.91
2017-10-30T18:06:44.154Z,6.76
2017-10-30T18:09:11.642Z,6.80
2017-10-30T18:11:39.126Z,6.83
2017-10-30T18:14:07.706Z,6.79
2017-10-30T18:16:35.178Z,6.76
2017-10-30T18:19:02.658Z,6.88
2017-10-30T18:21:30.158Z,6.99
2017-10-30T18:23:57.618Z,7.08
2017-10-30T18:26:25.119Z,7.10
2017-10-30T18:31:20.127Z,7.16
2017-10-30T18:33:47.880Z,7.11
2017-10-30T18:36:15.401Z,7.18
2017-10-30T18:38:42.865Z,7.18
2017-10-30T18:41:10.419Z,7.24
2017-10-30T18:43:37.947Z,7.23
2017-10-30T18:46:05.520Z,7.14
2017-10-30T18:48:32.980Z,7.30
2017-10-30T18:51:00.547Z,7.31
2017-10-30T18:53:28.073Z,7.28
2017-10-30T18:55:55.536Z,7.26
2017-10-30T18:58:23.025Z,7.28
2017-10-30T19:00:50.595Z,7.34
2017-10-30T19:03:18.102Z,7.36
2017-10-30T19:05:45.586Z,7.32
2017-10-30T19:08:13.056Z,7.43
2017-10-30T19:10:40.553Z,7.43
2017-10-30T19:13:08.095Z,7.43
2017-10-30T19:15:35.745Z,7.37
2017-10-30T19:18:03.231Z,7.35
2017-10-30T19:20:30.740Z,7.34
2017-10-30T19:22:58.222Z,7.29
2017-10-30T19:25:25.698Z,7.37
2017-10-30T19:27:53.209Z,7.28
2017-10-30T19:30:20.678Z,7.25
2017-10-30T19:32:48.158Z,7.25
2017-10-30T19:35:15.673Z,7.27
2017-10-30T19:37:43.151Z,7.33
2017-10-30T19:40:10.629Z,7.21
2017-10-30T19:42:38.106Z,7.10
2017-10-30T19:45:05.644Z,7.07
2017-10-30T19:47:33.172Z,7.12
2017-10-30T19:50:00.709Z,7.16
2017-10-30T19:52:28.245Z,7.10
2017-10-30T19:54:55.786Z,7.03
2017-10-30T19:57:23.290Z,7.12
2017-10-30T19:59:50.808Z,6.98
2017-10-30T20:02:18.355Z,6.95
2017-10-30T20:04:46.110Z,7.07
2017-10-30T20:07:19.369Z,7.10
2017-10-30T20:09:52.484Z,7.10
2017-10-30T20:12:25.466Z,7.07
2017-10-30T20:14:53.052Z,7.09
2017-10-30T20:17:20.531Z,7.10
2017-10-30T20:19:48.002Z,7.19
2017-10-30T20:22:15.508Z,7.20
2017-10-30T20:24:42.996Z,7.16
2017-10-30T20:27:10.478Z,7.16
2017-10-30T20:29:37.982Z,7.20
2017-10-30T20:32:05.465Z,7.18
2017-10-30T20:34:32.937Z,7.13
2017-10-30T20:37:00.412Z,7.11
2017-10-30T20:39:27.940Z,7.09
2017-10-30T20:41:55.392Z,7.14
2017-10-30T20:44:22.879Z,7.10
2017-10-30T20:46:50.357Z,7.19
2017-10-30T20:49:17.815Z,7.16
2017-10-30T20:51:45.296Z,7.00
2017-10-30T20:54:12.774Z,7.07
2017-10-30T20:56:40.255Z,7.00
2017-10-30T20:59:07.728Z,7.04
2017-10-30T21:01:35.207Z,7.03
2017-10-30T21:04:02.710Z,7.01
2017-10-30T21:06:30.233Z,6.97
2017-10-30T21:08:57.708Z,6.93
2017-10-30T21:11:25.177Z,6.97
2017-10-30T21:13:52.718Z,6.92
2017-10-30T21:16:20.189Z,6.89
2017-10-30T21:18:47.916Z,6.90
2017-10-30T21:21:15.415Z,6.82
2017-10-30T21:23:42.921Z,6.83
2017-10-30T21:26:10.435Z,6.81
2017-10-30T21:28:37.978Z,6.80
2017-10-30T21:31:05.450Z,6.83
2017-10-30T21:33:32.931Z,6.76
2017-10-30T21:36:00.441Z,6.70
2017-10-30T21:38:27.896Z,6.61
2017-10-30T21:40:55.369Z,6.65
2017-10-30T21:43:22.839Z,6.73
2017-10-30T21:45:50.296Z,6.74
2017-10-30T21:48:17.766Z,6.67
2017-10-30T21:50:45.277Z,6.67
2017-10-30T21:53:12.806Z,6.69
2017-10-30T21:55:40.297Z,6.70
2017-10-30T21:58:07.816Z,6.69
2017-10-30T22:00:35.297Z,6.63
2017-10-30T22:03:02.766Z,6.55
2017-10-30T22:05:30.283Z,6.68
2017-10-30T22:07:57.786Z,6.61
2017-10-30T22:10:25.244Z,6.61
2017-10-30T22:12:52.755Z,6.64
2017-10-30T22:15:20.217Z,6.48
2017-10-30T22:17:49.510Z,6.46
2017-10-30T22:20:17.008Z,6.50
2017-10-30T22:22:44.480Z,6.51
2017-10-30T22:25:11.935Z,6.58
2017-10-30T22:27:39.408Z,6.57
2017-10-30T22:30:06.917Z,6.41
2017-10-30T22:32:34.384Z,6.35
2017-10-30T22:35:01.884Z,6.35
2017-10-30T22:37:29.374Z,6.36
2017-10-30T22:39:56.834Z,6.28
2017-10-30T22:42:24.356Z,6.19
2017-10-30T22:44:51.858Z,6.21
2017-10-30T22:47:19.321Z,6.18
2017-10-30T22:49:46.866Z,6.10
2017-10-30T22:52:14.334Z,6.25
2017-10-30T22:54:41.853Z,6.22
2017-10-30T22:57:09.312Z,6.21
2017-10-30T22:59:36.792Z,6.25
2017-10-30T23:02:04.281Z,6.23
2017-10-30T23:04:31.790Z,6.36
2017-10-30T23:06:59.241Z,6.31
2017-10-30T23:09:26.733Z,6.32
2017-10-30T23:11:54.245Z,6.30
2017-10-30T23:14:21.710Z,6.28
2017-10-30T23:16:49.165Z,6.08
2017-10-30T23:19:16.655Z,6.23
2017-10-30T23:21:44.134Z,6.13
2017-10-30T23:24:11.602Z,6.04
2017-10-30T23:26:39.100Z,6.08
2017-10-30T23:29:06.562Z,6.08
2017-10-30T23:31:34.029Z,6.11
2017-10-30T23:34:01.525Z,6.00
2017-10-30T23:36:29.009Z,5.94
2017-10-30T23:38:56.489Z,5.87
2017-10-30T23:41:23.973Z,5.95
2017-10-30T23:43:51.445Z,5.91
2017-10-30T23:46:18.902Z,5.91
2017-10-30T23:48:46.370Z,5.90
2017-10-30T23:51:13.878Z,5.94
2017-10-30T23:53:41.339Z,5.90
2017-10-30T23:56:08.827Z,5.91
2017-10-30T23:58:36.282Z,5.94
